Time;durP1;ratioP1;P1;durP2;ratioP2;P2;SDS_P1;SDS_P2;PMS_P1;PMS_P2;Temp;Humidity;BMP_temperature;BMP_pressure;BME280_temperature;BME280_humidity;BME280_pressure;Samples;Min_cycle;Max_cycle;Signal;HPM_P1;HPM_P2
2021/01/02 00:01:18;;;;;;;56.10;52.30;;;;;;;7.39;49.97;100062.38;4425071;32;34328;-91
2021/01/02 00:03:47;;;;;;;56.70;52.58;;;;;;;7.26;50.58;100061.66;4424859;32;34201;-92
2021/01/02 00:06:23;;;;;;;57.28;53.35;;;;;;;7.89;49.24;100068.59;4437676;32;33962;-91
2021/01/02 00:09:04;;;;;;;57.40;53.45;;;;;;;7.27;50.64;100071.16;4424579;32;34547;-91
2021/01/02 00:12:09;;;;;;;56.47;52.53;;;;;;;6.88;52.18;100071.59;4424491;32;34435;-91
2021/01/02 00:14:52;;;;;;;56.50;52.45;;;;;;;6.98;51.48;100070.63;4424491;32;32805;-91
2021/01/02 00:17:57;;;;;;;58.72;54.42;;;;;;;7.55;49.99;100073.41;4427007;32;33762;-90
2021/01/02 00:20:50;;;;;;;57.05;53.05;;;;;;;7.52;49.69;100082.06;4439344;32;33782;-93
2021/01/02 00:23:32;;;;;;;57.08;53.05;;;;;;;8.60;46.79;100079.62;4442868;32;33579;-90
2021/01/02 00:26:09;;;;;;;57.42;53.20;;;;;;;8.62;46.06;100081.31;4442302;32;34313;-89
2021/01/02 00:28:40;;;;;;;56.88;52.92;;;;;;;8.14;47.26;100070.84;4429641;32;35345;-89
2021/01/02 00:31:18;;;;;;;57.20;53.30;;;;;;;8.69;45.66;100076.88;4439712;32;34086;-90
2021/01/02 00:33:52;;;;;;;57.13;53.38;;;;;;;7.80;48.83;100073.91;4442939;32;33112;-92
2021/01/02 00:36:35;;;;;;;55.97;52.03;;;;;;;7.89;48.42;100081.56;4430251;32;34692;-91
2021/01/02 00:39:03;;;;;;;58.42;54.28;;;;;;;7.25;50.28;100086.72;4426577;32;34357;-90
2021/01/02 00:41:33;;;;;;;57.28;53.30;;;;;;;7.65;49.18;100086.22;4426325;32;35307;-91
2021/01/02 00:44:04;;;;;;;59.85;55.22;;;;;;;7.97;48.65;100084.91;4413876;32;34158;-90
2021/01/02 00:46:34;;;;;;;58.72;54.58;;;;;;;8.80;46.45;100089.66;4437264;32;34661;-91
2021/01/02 00:49:02;;;;;;;58.17;53.75;;;;;;;9.33;45.05;100087.78;4437704;32;34215;-91
2021/01/02 00:51:32;;;;;;;58.97;54.50;;;;;;;9.62;44.24;100091.50;4418188;32;34350;-91
2021/01/02 00:54:12;;;;;;;58.05;53.75;;;;;;;9.48;43.87;100090.94;4429621;32;33924;-91
2021/01/02 00:56:49;;;;;;;58.20;54.10;;;;;;;8.29;46.99;100096.53;4413990;32;34523;-92
2021/01/02 00:59:48;;;;;;;57.25;52.85;;;;;;;8.55;46.69;100097.91;4414165;32;34626;-91
2021/01/02 01:02:46;;;;;;;59.08;54.45;;;;;;;9.67;43.90;100096.62;4426087;32;34396;-91
2021/01/02 01:05:22;;;;;;;57.60;53.58;;;;;;;9.84;43.35;100096.28;4372058;32;33985;-91
2021/01/02 01:07:54;;;;;;;59.38;55.05;;;;;;;8.45;46.18;100107.56;4413482;32;34355;-92
2021/01/02 01:10:27;;;;;;;57.25;53.00;;;;;;;8.48;46.65;100109.25;4426320;32;34369;-92
2021/01/02 01:13:08;;;;;;;57.13;53.08;;;;;;;9.63;43.43;100105.37;4413625;32;34148;-91
2021/01/02 01:15:38;;;;;;;58.97;54.75;;;;;;;9.90;42.34;100109.13;4414080;32;35407;-91
2021/01/02 01:18:19;;;;;;;57.03;52.90;;;;;;;9.32;42.91;100100.81;4438959;32;33776;-92
2021/01/02 01:20:48;;;;;;;;;;;;;;;9.30;43.68;100113.00;4414012;32;34213;-92
2021/01/02 01:23:23;;;;;;;56.50;52.50;;;;;;;9.01;45.05;100106.59;4426325;32;33001;-91
2021/01/02 01:26:00;;;;;;;56.97;53.08;;;;;;;9.00;44.54;100103.16;4425898;32;33885;-92
2021/01/02 01:28:31;;;;;;;58.65;54.42;;;;;;;9.77;42.05;100100.75;4425475;32;34328;-91
2021/01/02 01:31:01;;;;;;;60.65;56.05;;;;;;;9.90;41.46;100090.91;4425948;32;34380;-91
2021/01/02 01:33:29;;;;;;;58.78;54.58;;;;;;;10.08;41.39;100102.66;4425896;32;34177;-91
2021/01/02 01:36:02;;;;;;;59.38;54.85;;;;;;;10.10;41.25;100100.84;4426282;32;33482;-92
2021/01/02 01:38:31;;;;;;;55.78;52.00;;;;;;;10.30;41.21;100112.56;4426141;32;34564;-91
2021/01/02 01:41:12;;;;;;;57.13;53.13;;;;;;;9.78;42.38;100109.41;4426098;32;35084;-91
2021/01/02 01:43:49;;;;;;;58.40;54.05;;;;;;;10.35;40.88;100103.78;4426416;32;34747;-91
2021/01/02 01:46:24;;;;;;;59.35;55.05;;;;;;;10.25;41.21;100104.00;4425991;32;32371;-92
2021/01/02 01:48:52;;;;;;;58.95;54.58;;;;;;;10.36;40.86;100100.28;4425976;32;34206;-91
2021/01/02 01:51:29;;;;;;;58.97;54.28;;;;;;;9.92;41.78;100107.34;4438576;32;34043;-91
2021/01/02 01:54:00;;;;;;;59.08;54.72;;;;;;;8.48;45.88;100114.44;4438331;32;34343;-93
2021/01/02 01:56:34;;;;;;;59.78;55.15;;;;;;;9.68;42.85;100108.75;4413369;32;33911;-93
2021/01/02 01:59:06;;;;;;;60.28;55.67;;;;;;;9.62;42.16;100116.69;4425732;32;34807;-92
2021/01/02 02:01:55;;;;;;;59.20;54.72;;;;;;;10.18;41.27;100116.31;4435751;32;34609;-91
2021/01/02 02:04:55;;;;;;;59.80;55.33;;;;;;;10.33;40.74;100109.88;4413452;32;34354;-92
2021/01/02 02:07:48;;;;;;;59.78;54.97;;;;;;;8.55;45.13;100113.47;4425826;32;34063;-91
2021/01/02 02:10:28;;;;;;;;;;;;;;;7.90;46.58;100106.62;4428870;32;34687;-91
2021/01/02 02:12:58;;;;;;;59.90;55.40;;;;;;;8.60;45.36;100103.88;4425664;32;34349;-91
2021/01/02 02:15:28;;;;;;;59.78;55.15;;;;;;;9.54;42.90;100103.81;4425555;32;34409;-92
2021/01/02 02:18:06;;;;;;;59.22;54.75;;;;;;;10.35;40.97;100108.13;4413070;32;33775;-91
2021/01/02 02:20:34;;;;;;;57.47;53.38;;;;;;;9.96;42.23;100116.81;4425622;32;34457;-91
2021/01/02 02:23:07;;;;;;;58.97;54.55;;;;;;;9.74;42.58;100110.38;4413472;32;34252;-92
2021/01/02 02:25:49;;;;;;;60.20;55.00;;;;;;;9.67;43.22;100110.47;4425776;32;34309;-91
2021/01/02 02:28:46;;;;;;;58.40;54.15;;;;;;;10.52;41.21;100105.13;4438545;32;33341;-91
2021/01/02 02:31:15;;;;;;;58.87;54.60;;;;;;;10.46;40.88;100100.06;4406420;32;34366;-91
2021/01/02 02:34:01;;;;;;;59.30;54.85;;;;;;;10.22;41.41;100106.69;4425484;32;34385;-92
2021/01/02 02:36:33;;;;;;;57.80;53.70;;;;;;;8.30;46.10;100106.03;4413854;32;34612;-91
2021/01/02 02:39:08;;;;;;;59.38;55.08;;;;;;;8.39;45.99;100104.19;4438120;32;32763;-91
2021/01/02 02:41:49;;;;;;;60.97;56.13;;;;;;;7.58;48.57;100097.56;4425197;32;34327;-92
2021/01/02 02:44:21;;;;;;;59.97;55.47;;;;;;;7.50;48.68;100097.66;4425576;32;34514;-91
2021/01/02 02:46:52;;;;;;;58.50;54.20;;;;;;;7.65;48.70;100100.94;4425494;32;33977;-91
2021/01/02 02:49:22;;;;;;;58.25;53.90;;;;;;;8.21;47.46;100087.16;4425625;32;34680;-91
2021/01/02 02:52:08;;;;;;;59.78;55.25;;;;;;;9.25;44.49;100084.47;4425630;32;34409;-91
2021/01/02 02:54:36;;;;;;;60.05;55.67;;;;;;;8.23;47.12;100082.78;4425529;32;35296;-91
2021/01/02 02:57:04;;;;;;;57.97;53.60;;;;;;;7.79;47.74;100091.22;4425447;32;34274;-93
2021/01/02 02:59:32;;;;;;;57.60;53.50;;;;;;;7.46;48.38;100100.28;4412799;32;33715;-91
2021/01/02 03:02:06;;;;;;;57.78;53.15;;;;;;;7.32;49.12;100101.31;4425722;32;34538;-91
2021/01/02 03:04:33;;;;;;;58.72;54.33;;;;;;;7.25;49.12;100097.09;4412743;32;34630;-91
2021/01/02 03:07:04;;;;;;;60.20;55.88;;;;;;;6.71;50.64;100102.81;4425391;32;34020;-91
2021/01/02 03:09:33;;;;;;;59.03;54.70;;;;;;;6.61;51.18;100107.25;4425980;32;33002;-92
2021/01/02 03:12:00;;;;;;;59.30;54.95;;;;;;;7.48;49.22;100095.94;4425221;32;34477;-90
2021/01/02 03:14:29;;;;;;;59.55;55.17;;;;;;;7.10;50.37;100105.03;4425591;32;35405;-92
2021/01/02 03:17:00;;;;;;;59.22;54.75;;;;;;;6.95;50.61;100103.47;4425360;32;35501;-91
2021/01/02 03:19:29;;;;;;;59.47;55.05;;;;;;;7.26;49.82;100104.00;4412487;32;33965;-91
2021/01/02 03:21:59;;;;;;;60.85;56.22;;;;;;;8.05;48.10;100107.31;4425480;32;34592;-91
2021/01/02 03:24:27;;;;;;;59.97;55.63;;;;;;;7.64;49.28;100110.44;4425394;32;34781;-92
2021/01/02 03:26:55;;;;;;;61.20;56.53;;;;;;;7.67;49.07;100115.59;4425253;32;34087;-91
2021/01/02 03:29:23;;;;;;;61.35;56.13;;;;;;;8.10;48.56;100121.06;4426143;32;34375;-92
2021/01/02 03:31:52;;;;;;;61.95;56.85;;;;;;;8.95;46.48;100107.56;4420788;32;33981;-89
2021/01/02 03:34:20;;;;;;;62.25;57.20;;;;;;;9.14;45.94;100115.03;4428716;32;35147;-90
2021/01/02 03:36:50;;;;;;;61.20;56.37;;;;;;;9.39;45.71;100119.75;4440821;32;35378;-90
2021/01/02 03:39:18;;;;;;;61.67;56.42;;;;;;;9.06;46.70;100119.53;4434399;32;36172;-92
2021/01/02 03:41:45;;;;;;;61.78;56.83;;;;;;;8.50;48.12;100121.31;4428690;32;34883;-92
2021/01/02 03:44:14;;;;;;;60.17;55.78;;;;;;;8.97;47.37;100107.53;4441308;32;34073;-92
2021/01/02 03:46:42;;;;;;;60.00;55.12;;;;;;;8.98;47.32;100110.09;4412162;32;34543;-91
2021/01/02 03:49:09;;;;;;;62.10;57.40;;;;;;;8.85;47.48;100111.22;4414616;32;33929;-91
2021/01/02 03:51:37;;;;;;;60.80;55.83;;;;;;;8.13;49.11;100108.88;4424326;32;34362;-91
2021/01/02 03:54:04;;;;;;;61.35;56.67;;;;;;;8.21;48.71;100111.37;4412218;32;33655;-90
2021/01/02 03:56:32;;;;;;;60.28;55.80;;;;;;;8.44;48.75;100108.44;4424481;32;34262;-92
2021/01/02 03:59:00;;;;;;;61.63;56.95;;;;;;;8.44;48.53;100108.44;4412086;32;34664;-91
2021/01/02 04:01:27;;;;;;;60.53;55.85;;;;;;;8.59;48.11;100111.66;4424796;32;34837;-90
2021/01/02 04:03:56;;;;;;;60.63;55.90;;;;;;;8.24;48.80;100123.44;4424732;32;35129;-92
2021/01/02 04:06:25;;;;;;;63.13;58.00;;;;;;;8.12;49.31;100129.69;4424950;32;34604;-92
2021/01/02 04:08:52;;;;;;;61.33;56.80;;;;;;;8.65;48.28;100125.41;4412089;32;32419;-90
2021/01/02 04:11:21;;;;;;;61.65;56.85;;;;;;;8.59;48.03;100115.13;4425209;32;34003;-91
2021/01/02 04:13:49;;;;;;;62.33;57.42;;;;;;;9.64;45.83;100117.50;4447431;32;34801;-90
2021/01/02 04:16:18;;;;;;;62.62;57.67;;;;;;;9.41;46.25;100098.00;4425454;32;35508;-90
2021/01/02 04:18:46;;;;;;;61.13;56.58;;;;;;;8.64;48.52;100096.88;4416118;32;34367;-91
2021/01/02 04:21:15;;;;;;;60.92;56.13;;;;;;;8.74;47.71;100100.19;4428042;32;33514;-91
2021/01/02 04:23:44;;;;;;;61.05;56.22;;;;;;;7.94;49.99;100097.09;4425184;32;34104;-90
2021/01/02 04:26:18;;;;;;;61.58;56.60;;;;;;;8.26;49.06;100096.59;4424287;32;34857;-90
2021/01/02 04:28:45;;;;;;;60.85;56.10;;;;;;;8.47;49.13;100104.94;4411754;32;34162;-91
2021/01/02 04:31:14;;;;;;;61.35;56.53;;;;;;;8.92;48.17;100102.44;4424430;32;34196;-92
2021/01/02 04:33:42;;;;;;;61.28;56.67;;;;;;;9.27;47.57;100107.88;4411912;32;34497;-91
2021/01/02 04:36:14;;;;;;;62.25;57.60;;;;;;;9.64;46.44;100102.75;4424843;32;34730;-92
2021/01/02 04:38:43;;;;;;;61.75;57.10;;;;;;;9.29;47.70;100093.94;4424183;32;33828;-91
2021/01/02 04:41:14;;;;;;;62.40;57.50;;;;;;;9.08;47.57;100094.34;4411557;32;35129;-91
2021/01/02 04:43:47;;;;;;;61.67;56.97;;;;;;;8.79;48.45;100106.16;4436787;32;34196;-92
2021/01/02 04:46:14;;;;;;;62.03;57.20;;;;;;;9.02;47.92;100103.97;4424075;32;34263;-91
2021/01/02 04:48:45;;;;;;;63.38;58.33;;;;;;;8.91;48.37;100103.31;4424095;32;35096;-92
2021/01/02 04:51:13;;;;;;;60.55;56.10;;;;;;;8.09;50.60;100107.22;4411819;32;34115;-91
2021/01/02 04:53:41;;;;;;;61.08;56.50;;;;;;;8.05;50.80;100102.97;4411950;32;35435;-91
2021/01/02 04:56:09;;;;;;;60.83;56.15;;;;;;;8.27;49.87;100106.09;4424142;32;34486;-91
2021/01/02 04:58:41;;;;;;;61.95;57.22;;;;;;;8.57;49.47;100106.50;4411494;32;33968;-90
2021/01/02 05:01:11;;;;;;;62.05;56.97;;;;;;;9.27;47.89;100107.88;4430336;32;35053;-90
2021/01/02 05:03:46;;;;;;;61.58;57.00;;;;;;;10.60;44.62;100111.00;4442333;32;34019;-90
2021/01/02 05:06:22;;;;;;;62.03;57.10;;;;;;;10.60;44.61;100108.37;4442555;32;34818;-89
2021/01/02 05:08:51;;;;;;;62.62;57.67;;;;;;;11.13;43.14;100112.25;4431429;32;34835;-91
2021/01/02 05:11:20;;;;;;;60.45;55.85;;;;;;;11.31;42.71;100106.50;4417578;32;34312;-91
2021/01/02 05:13:48;;;;;;;63.72;58.67;;;;;;;11.02;43.32;100109.91;4429152;32;33156;-91
2021/01/02 05:16:31;;;;;;;62.92;57.78;;;;;;;9.80;46.62;100124.09;4426705;32;33747;-91
2021/01/02 05:19:05;;;;;;;61.08;56.37;;;;;;;9.43;48.01;100111.00;4427426;32;33499;-91
2021/01/02 05:21:35;;;;;;;62.25;57.45;;;;;;;9.85;47.22;100103.16;4438343;32;34491;-91
2021/01/02 05:24:06;;;;;;;60.80;56.10;;;;;;;9.07;48.97;100106.50;4426428;32;35856;-92
2021/01/02 05:26:35;;;;;;;62.70;57.90;;;;;;;10.14;46.42;100112.06;4452819;32;33749;-91
2021/01/02 05:29:15;;;;;;;61.80;56.70;;;;;;;10.22;46.04;100111.91;4426180;32;33398;-91
2021/01/02 05:31:49;;;;;;;60.60;56.08;;;;;;;10.58;45.16;100122.34;4426197;32;35561;-91
2021/01/02 05:34:21;;;;;;;60.63;56.20;;;;;;;11.28;43.68;100117.03;4426103;32;33491;-90
2021/01/02 05:37:01;;;;;;;63.40;58.60;;;;;;;11.07;44.04;100128.03;4413222;32;34262;-91
2021/01/02 05:39:49;;;;;;;61.92;57.33;;;;;;;10.57;45.57;100134.53;4438543;32;33341;-92
2021/01/02 05:42:20;;;;;;;62.85;58.13;;;;;;;10.53;45.56;100133.75;4413684;32;34131;-91
2021/01/02 05:44:48;;;;;;;62.78;58.08;;;;;;;10.84;44.67;100127.75;4426124;32;35437;-90
2021/01/02 05:47:20;;;;;;;62.75;57.90;;;;;;;10.77;44.87;100143.56;4413616;32;35167;-92
2021/01/02 05:49:50;;;;;;;61.53;56.92;;;;;;;11.22;43.81;100152.84;4413843;32;34399;-91
2021/01/02 05:52:18;;;;;;;62.65;57.65;;;;;;;10.45;45.56;100155.66;4413184;32;34468;-91
2021/01/02 05:54:45;;;;;;;60.88;56.22;;;;;;;11.30;43.38;100164.81;4413528;32;34449;-92
2021/01/02 05:57:14;;;;;;;60.95;56.47;;;;;;;11.12;43.88;100168.75;4438408;32;34450;-92
2021/01/02 05:59:43;;;;;;;60.08;55.45;;;;;;;10.58;45.20;100177.91;4426187;32;32998;-92
2021/01/02 06:02:37;;;;;;;60.80;56.25;;;;;;;10.56;45.55;100169.28;4438566;32;33949;-91
2021/01/02 06:05:08;;;;;;;60.38;56.13;;;;;;;10.15;46.26;100168.47;4436957;32;33772;-91
2021/01/02 06:07:37;;;;;;;61.63;56.88;;;;;;;9.68;47.33;100169.44;4413305;32;34658;-91
2021/01/02 06:10:08;;;;;;;59.78;55.10;;;;;;;9.75;47.64;100169.31;4426210;32;33485;-91
2021/01/02 06:12:37;;;;;;;;;;;;;;;9.96;47.07;100166.25;4425660;32;34360;-90
2021/01/02 06:15:15;;;;;;;60.90;56.28;;;;;;;9.85;46.91;100166.50;4413206;32;34190;-92
2021/01/02 06:17:48;;;;;;;60.75;55.83;;;;;;;9.76;47.13;100176.22;4426241;32;34336;-91
2021/01/02 06:20:17;;;;;;;61.15;56.55;;;;;;;10.08;46.69;100177.28;4426493;32;33464;-91
2021/01/02 06:22:45;;;;;;;59.55;54.90;;;;;;;9.68;47.23;100173.81;4425766;32;34268;-91
2021/01/02 06:25:14;;;;;;;59.88;55.63;;;;;;;10.15;46.15;100174.50;4425784;32;34738;-91
2021/01/02 06:27:43;;;;;;;60.35;56.05;;;;;;;9.24;48.48;100183.31;4426025;32;34616;-92
2021/01/02 06:30:16;;;;;;;59.95;55.42;;;;;;;9.55;47.57;100185.34;4426438;32;33873;-92
2021/01/02 06:32:47;;;;;;;59.58;55.05;;;;;;;10.20;45.88;100183.09;4427034;32;33773;-91
2021/01/02 06:35:20;;;;;;;62.10;57.30;;;;;;;10.20;45.50;100177.03;4415412;32;34134;-91
2021/01/02 06:37:48;;;;;;;62.40;57.47;;;;;;;9.97;46.10;100177.53;4433842;32;34530;-89
2021/01/02 06:40:29;;;;;;;62.45;57.72;;;;;;;10.52;44.75;100172.84;4429527;32;33748;-92
2021/01/02 06:42:57;;;;;;;60.92;56.63;;;;;;;10.14;45.66;100182.38;4429774;32;33569;-91
2021/01/02 06:45:35;;;;;;;61.83;57.10;;;;;;;10.16;45.45;100172.78;4414745;32;34184;-92
2021/01/02 06:48:12;;;;;;;61.50;56.97;;;;;;;10.06;45.77;100173.88;4439052;32;33722;-91
2021/01/02 06:50:40;;;;;;;62.25;57.60;;;;;;;9.95;46.02;100172.34;4438311;32;34190;-91
2021/01/02 06:53:22;;;;;;;60.78;56.17;;;;;;;9.72;46.45;100169.37;4425859;32;35549;-92
2021/01/02 06:56:06;;;;;;;58.50;54.20;;;;;;;10.01;45.76;100167.03;4413069;32;34646;-91
2021/01/02 06:58:44;;;;;;;60.22;55.70;;;;;;;10.43;45.05;100163.50;4425482;32;34824;-91
2021/01/02 07:01:15;;;;;;;62.40;57.65;;;;;;;10.03;45.65;100166.97;4425687;32;33253;-91
2021/01/02 07:03:46;;;;;;;61.08;56.58;;;;;;;10.14;45.43;100182.38;4412596;32;35392;-92
2021/01/02 07:06:17;;;;;;;60.05;55.65;;;;;;;10.12;45.36;100181.56;4412863;32;34360;-92
2021/01/02 07:08:47;;;;;;;61.90;57.10;;;;;;;9.98;46.10;100182.69;4438585;32;33746;-92
2021/01/02 07:11:23;;;;;;;60.95;56.33;;;;;;;10.00;45.97;100190.50;4438102;32;32520;-92
2021/01/02 07:14:07;;;;;;;61.47;56.80;;;;;;;9.92;46.10;100192.38;4425513;32;34152;-92
2021/01/02 07:16:55;;;;;;;61.80;57.03;;;;;;;9.81;46.42;100185.66;4438410;32;33335;-91
2021/01/02 07:19:23;;;;;;;59.92;55.63;;;;;;;10.06;45.87;100189.50;4413293;32;33980;-92
2021/01/02 07:22:17;;;;;;;59.33;54.60;;;;;;;9.96;46.24;100192.28;4425374;32;33791;-90
2021/01/02 07:25:01;;;;;;;58.70;54.40;;;;;;;9.29;48.15;100199.69;4430154;32;34176;-91
2021/01/02 07:27:31;;;;;;;59.13;54.83;;;;;;;9.26;48.34;100202.34;4425118;32;34118;-91
2021/01/02 07:30:10;;;;;;;60.10;55.63;;;;;;;9.14;48.70;100213.81;4425006;32;34131;-91
2021/01/02 07:32:39;;;;;;;59.40;54.92;;;;;;;9.05;48.81;100207.03;4438206;32;34097;-91
2021/01/02 07:35:12;;;;;;;60.12;55.55;;;;;;;9.59;47.54;100205.22;4425764;32;34504;-90
2021/01/02 07:37:45;;;;;;;61.75;57.15;;;;;;;9.87;47.08;100210.69;4425189;32;35638;-92
2021/01/02 07:40:17;;;;;;;59.42;55.10;;;;;;;10.51;45.40;100207.63;4427786;32;34060;-91
2021/01/02 07:42:55;;;;;;;59.35;54.85;;;;;;;10.11;46.13;100219.75;4437558;32;33971;-90
2021/01/02 07:45:25;;;;;;;59.78;55.33;;;;;;;11.05;44.11;100214.16;4433737;32;33223;-90
2021/01/02 07:47:55;;;;;;;59.17;54.78;;;;;;;10.57;44.90;100230.94;4414774;32;34517;-91
2021/01/02 07:50:28;;;;;;;59.40;54.88;;;;;;;10.93;44.07;100230.94;4427114;32;33912;-92
2021/01/02 07:52:57;;;;;;;58.58;54.30;;;;;;;10.27;45.92;100243.69;4425349;32;32983;-90
2021/01/02 07:55:31;;;;;;;59.65;55.00;;;;;;;9.83;46.94;100238.53;4412956;32;34260;-91
2021/01/02 07:58:03;;;;;;;60.35;55.80;;;;;;;10.43;45.68;100235.59;4437714;32;34320;-91
2021/01/02 08:00:32;;;;;;;60.28;55.88;;;;;;;9.89;47.02;100237.53;4413365;32;34551;-91
2021/01/02 08:03:04;;;;;;;59.20;54.88;;;;;;;9.14;49.25;100232.88;4440322;32;33838;-89
2021/01/02 08:05:32;;;;;;;60.55;55.95;;;;;;;9.95;47.41;100240.03;4441184;32;35097;-89
2021/01/02 08:08:02;;;;;;;60.45;55.65;;;;;;;10.05;47.03;100240.72;4428532;32;35074;-89
2021/01/02 08:10:30;;;;;;;59.63;55.42;;;;;;;10.43;46.30;100235.59;4424454;32;34133;-91
2021/01/02 08:13:00;;;;;;;59.55;55.33;;;;;;;10.32;46.25;100228.84;4423065;32;34157;-91
2021/01/02 08:15:31;;;;;;;60.20;55.80;;;;;;;10.25;46.49;100231.59;4414400;32;34588;-91
2021/01/02 08:18:00;;;;;;;58.33;54.22;;;;;;;9.94;47.77;100238.31;4424954;32;34123;-91
2021/01/02 08:20:29;;;;;;;59.47;55.05;;;;;;;10.20;47.17;100229.97;4412173;32;34207;-91
2021/01/02 08:22:57;;;;;;;59.47;55.22;;;;;;;10.86;45.72;100231.97;4437136;32;33776;-90
2021/01/02 08:25:26;;;;;;;59.83;55.47;;;;;;;11.08;44.97;100247.09;4412198;32;35115;-91
2021/01/02 08:27:55;;;;;;;58.40;54.17;;;;;;;11.05;45.04;100247.16;4424423;32;34504;-91
2021/01/02 08:30:23;;;;;;;60.88;56.47;;;;;;;10.94;45.40;100250.03;4424305;32;34538;-91
2021/01/02 08:32:53;;;;;;;60.00;55.67;;;;;;;10.87;45.52;100257.16;4424792;32;33259;-91
2021/01/02 08:35:26;;;;;;;58.53;54.47;;;;;;;11.24;44.68;100258.00;4412181;32;34333;-91
2021/01/02 08:38:03;;;;;;;58.35;54.35;;;;;;;11.15;44.53;100264.31;4413394;32;34405;-92
2021/01/02 08:40:37;;;;;;;59.05;54.67;;;;;;;9.98;47.16;100286.81;4413902;32;34952;-90
2021/01/02 08:43:05;;;;;;;59.38;55.00;;;;;;;10.52;46.31;100274.47;4426623;32;33591;-92
2021/01/02 08:45:36;;;;;;;58.45;54.33;;;;;;;10.71;45.87;100272.28;4439354;32;33974;-91
2021/01/02 08:48:12;;;;;;;57.33;53.47;;;;;;;10.96;45.31;100267.34;4413899;32;34415;-90
2021/01/02 08:50:41;;;;;;;56.97;53.13;;;;;;;10.74;45.77;100272.22;4413993;32;34081;-91
2021/01/02 08:53:28;;;;;;;57.92;53.97;;;;;;;10.71;45.83;100271.44;4426128;32;33598;-91
2021/01/02 08:56:24;;;;;;;57.97;54.08;;;;;;;10.79;46.00;100261.69;4426629;32;35091;-91
2021/01/02 08:58:52;;;;;;;58.55;54.22;;;;;;;10.38;46.88;100268.69;4404441;32;34441;-91
2021/01/02 09:01:21;;;;;;;57.83;53.67;;;;;;;10.68;45.96;100265.41;4426598;32;33101;-91
2021/01/02 09:03:48;;;;;;;57.75;53.72;;;;;;;11.22;44.81;100250.22;4413649;32;33935;-92
2021/01/02 09:06:21;;;;;;;57.67;53.78;;;;;;;11.17;44.85;100250.34;4439205;32;33827;-91
2021/01/02 09:09:01;;;;;;;58.08;53.97;;;;;;;11.58;43.79;100247.53;4426433;32;34872;-91
2021/01/02 09:11:28;;;;;;;58.08;54.20;;;;;;;11.55;43.76;100249.38;4426394;32;33923;-91
2021/01/02 09:14:06;;;;;;;57.97;53.97;;;;;;;11.20;44.25;100250.25;4426093;32;33601;-92
2021/01/02 09:16:34;;;;;;;56.40;52.60;;;;;;;10.85;45.37;100238.09;4413898;32;33857;-91
2021/01/02 09:19:05;;;;;;;56.50;52.72;;;;;;;11.28;44.38;100242.22;4426299;32;35284;-91
2021/01/02 09:21:33;;;;;;;56.47;52.60;;;;;;;11.04;44.74;100238.50;4426088;32;34640;-91
2021/01/02 09:24:01;;;;;;;58.08;54.00;;;;;;;10.97;45.06;100236.94;4413203;32;32124;-91
2021/01/02 09:26:38;;;;;;;57.50;53.58;;;;;;;11.40;44.20;100235.84;4425842;32;35601;-91
2021/01/02 09:29:13;;;;;;;56.78;52.90;;;;;;;11.99;42.53;100224.69;4413468;32;34473;-92
2021/01/02 09:31:42;;;;;;;56.88;53.10;;;;;;;11.77;42.94;100219.19;4416184;32;35658;-90
2021/01/02 09:34:10;;;;;;;56.97;53.08;;;;;;;12.30;41.66;100223.75;4455428;32;34793;-90
2021/01/02 09:36:38;;;;;;;57.35;53.35;;;;;;;11.74;42.91;100213.19;4442354;32;35502;-89
2021/01/02 09:39:07;;;;;;;56.70;52.80;;;;;;;12.50;41.10;100209.22;4442380;32;35201;-90
2021/01/02 09:41:36;;;;;;;56.88;53.13;;;;;;;12.53;41.22;100215.19;4429622;32;35099;-90
2021/01/02 09:44:04;;;;;;;56.58;52.75;;;;;;;12.89;40.19;100203.59;4455042;32;36592;-90
2021/01/02 09:46:51;;;;;;;58.00;54.00;;;;;;;13.08;39.89;100203.00;4426874;32;33969;-91
2021/01/02 09:49:20;;;;;;;56.33;52.55;;;;;;;12.55;41.03;100196.87;4425799;32;33415;-91
2021/01/02 09:51:48;;;;;;;57.75;53.65;;;;;;;12.39;41.69;100200.84;4413442;32;32666;-91
2021/01/02 09:54:16;;;;;;;57.90;53.90;;;;;;;11.86;42.86;100197.19;4425778;32;34414;-91
2021/01/02 09:56:46;;;;;;;58.25;54.25;;;;;;;12.12;42.17;100203.41;4425620;32;35156;-91
2021/01/02 09:59:16;;;;;;;56.92;52.97;;;;;;;12.17;42.14;100209.38;4425954;32;34122;-91
2021/01/02 10:01:43;;;;;;;56.63;52.97;;;;;;;12.61;41.25;100201.88;4426280;32;33558;-92
2021/01/02 10:04:11;;;;;;;57.28;53.40;;;;;;;11.46;43.58;100203.50;4413163;32;33893;-91
2021/01/02 10:06:45;;;;;;;57.38;53.47;;;;;;;11.92;42.39;100193.53;4425857;32;34708;-92
2021/01/02 10:09:13;;;;;;;58.05;54.25;;;;;;;11.30;44.12;100197.84;4413455;32;34725;-92
2021/01/02 10:11:42;;;;;;;58.28;54.42;;;;;;;11.06;44.58;100204.56;4425676;32;34209;-91
2021/01/02 10:14:10;;;;;;;57.15;53.10;;;;;;;11.86;42.76;100198.03;4425862;32;34807;-91
2021/01/02 10:16:38;;;;;;;57.00;53.08;;;;;;;11.96;42.63;100192.56;4413150;32;34120;-91
2021/01/02 10:19:08;;;;;;;58.20;54.25;;;;;;;11.68;42.99;100183.72;4425531;32;34908;-92
2021/01/02 10:21:35;;;;;;;56.63;52.72;;;;;;;12.48;41.43;100184.88;4412859;32;34779;-91
2021/01/02 10:24:05;;;;;;;57.55;53.63;;;;;;;12.52;41.27;100184.75;4425673;32;32685;-92
2021/01/02 10:26:32;;;;;;;56.42;52.62;;;;;;;12.82;40.37;100171.56;4413136;32;34384;-92
2021/01/02 10:29:04;;;;;;;57.80;53.83;;;;;;;12.73;40.52;100171.03;4412915;32;34230;-91
2021/01/02 10:31:33;;;;;;;57.08;53.38;;;;;;;12.85;40.24;100166.22;4426227;32;34220;-91
2021/01/02 10:34:01;;;;;;;57.05;53.25;;;;;;;12.42;40.82;100166.78;4425700;32;34076;-91
2021/01/02 10:36:28;;;;;;;56.67;52.90;;;;;;;12.14;41.91;100163.28;4413033;32;34181;-92
2021/01/02 10:38:56;;;;;;;57.85;53.92;;;;;;;12.50;41.26;100160.41;4425388;32;35302;-92
2021/01/02 10:41:24;;;;;;;56.30;52.30;;;;;;;11.97;42.52;100144.66;4412949;32;32870;-93
2021/01/02 10:43:52;;;;;;;56.17;52.33;;;;;;;12.03;42.19;100140.12;4425466;32;33833;-93
2021/01/02 10:46:21;;;;;;;56.88;53.10;;;;;;;12.83;40.42;100146.28;4426116;32;34241;-91
2021/01/02 10:48:49;;;;;;;56.47;52.40;;;;;;;13.00;40.01;100141.34;4412941;32;32915;-91
2021/01/02 10:51:19;;;;;;;56.88;52.97;;;;;;;12.01;41.74;100144.53;4412976;32;34345;-90
2021/01/02 10:53:48;;;;;;;56.15;52.22;;;;;;;12.49;41.18;100136.94;4425479;32;34134;-91
2021/01/02 10:56:18;;;;;;;57.88;53.65;;;;;;;12.99;39.91;100126.56;4425541;32;33447;-92
2021/01/02 10:58:45;;;;;;;56.50;52.70;;;;;;;12.23;41.59;100130.81;4412374;32;35321;-92
2021/01/02 11:01:14;;;;;;;56.33;52.55;;;;;;;11.78;42.81;100128.66;4425619;32;34398;-92
2021/01/02 11:03:41;;;;;;;55.72;52.22;;;;;;;12.02;42.01;100120.12;4425147;32;33819;-91
2021/01/02 11:06:10;;;;;;;57.17;53.42;;;;;;;12.85;40.37;100120.94;4417064;32;34880;-90
2021/01/02 11:08:38;;;;;;;56.05;52.55;;;;;;;13.22;39.69;100111.81;4441707;32;35317;-90
2021/01/02 11:11:07;;;;;;;56.65;52.95;;;;;;;12.41;41.36;100116.28;4441644;32;34618;-90
2021/01/02 11:13:36;;;;;;;56.13;52.53;;;;;;;12.03;42.37;100106.16;4441926;32;33816;-89
2021/01/02 11:16:04;;;;;;;56.80;53.00;;;;;;;13.03;40.34;100112.47;4438928;32;36427;-90
2021/01/02 11:18:32;;;;;;;56.67;52.92;;;;;;;12.58;41.09;100113.12;4437259;32;34050;-91
2021/01/02 11:21:00;;;;;;;55.90;52.20;;;;;;;12.63;41.17;100103.38;4433891;32;34265;-90
2021/01/02 11:23:29;;;;;;;57.00;53.20;;;;;;;12.41;41.86;100103.22;4434855;32;33507;-92
2021/01/02 11:25:57;;;;;;;57.03;53.40;;;;;;;12.03;42.28;100100.94;4429787;32;34138;-91
2021/01/02 11:28:25;;;;;;;56.03;52.30;;;;;;;12.38;41.69;100100.72;4413411;32;35657;-91
2021/01/02 11:30:55;;;;;;;54.75;51.22;;;;;;;12.66;40.99;100102.41;4425218;32;34196;-92
2021/01/02 11:33:23;;;;;;;56.60;52.72;;;;;;;12.41;41.25;100108.44;4425093;32;35032;-90
2021/01/02 11:35:51;;;;;;;55.42;52.00;;;;;;;12.39;41.35;100107.66;4425391;32;33449;-91
2021/01/02 11:38:19;;;;;;;56.17;52.17;;;;;;;12.29;41.84;100104.47;4425019;32;35670;-91